Time;durP1;ratioP1;P1;durP2;ratioP2;P2;SDS_P1;SDS_P2;PMS_P1;PMS_P2;Temp;Humidity;BMP_temperature;BMP_pressure;BME280_temperature;BME280_humidity;BME280_pressure;Samples;Min_cycle;Max_cycle;Signal;HPM_P1;HPM_P2
2021/08/05 00:00:40;;;;;;;;;0.00;0.00;;;;;27.27;38.98;100373.69;5075304;28;45478;-66
2021/08/05 00:03:05;;;;;;;;;0.00;0.00;;;;;27.28;38.38;100368.13;5075456;28;45504;-66
2021/08/05 00:05:31;;;;;;;;;0.00;0.00;;;;;27.25;38.51;100354.66;5074962;28;45547;-67
2021/08/05 00:07:56;;;;;;;;;0.00;0.00;;;;;27.26;39.02;100356.41;5074866;28;45408;-67
2021/08/05 00:10:23;;;;;;;;;0.00;0.00;;;;;27.28;38.59;100345.41;5074905;28;45662;-67
2021/08/05 00:12:49;;;;;;;;;0.00;0.00;;;;;27.25;39.00;100334.69;5075168;28;45489;-67
2021/08/05 00:15:14;;;;;;;;;0.00;0.00;;;;;27.26;38.71;100348.22;5074653;28;45523;-67
2021/08/05 00:17:40;;;;;;;;;0.00;0.00;;;;;27.24;38.54;100344.69;5074165;28;46771;-67
2021/08/05 00:20:06;;;;;;;;;0.00;0.00;;;;;27.23;38.74;100348.44;5075137;28;45440;-66
2021/08/05 00:22:31;;;;;;;;;0.00;0.00;;;;;27.24;38.87;100341.97;5075078;28;45464;-67
2021/08/05 00:24:57;;;;;;;;;0.00;0.00;;;;;27.23;39.09;100345.69;5074267;28;45389;-66
2021/08/05 00:27:22;;;;;;;;;0.00;0.00;;;;;27.23;38.52;100342.97;5074810;28;45410;-66
2021/08/05 00:29:47;;;;;;;;;0.00;0.00;;;;;27.22;39.20;100343.88;5074836;28;45465;-66
2021/08/05 00:32:13;;;;;;;;;0.00;0.00;;;;;27.23;39.08;100342.03;5074598;28;45467;-66
2021/08/05 00:34:38;;;;;;;;;0.00;0.00;;;;;27.23;38.59;100336.56;5074685;28;45738;-66
2021/08/05 00:37:04;;;;;;;;;0.00;0.00;;;;;27.23;39.15;100336.56;5074758;28;45464;-66
2021/08/05 00:39:29;;;;;;;;;0.00;0.00;;;;;27.21;38.79;100333.97;5074714;28;45519;-66
2021/08/05 00:41:55;;;;;;;;;0.00;0.00;;;;;27.21;39.11;100339.41;5073611;28;45463;-66
2021/08/05 00:44:22;;;;;;;;;0.00;0.00;;;;;27.21;38.94;100333.97;5056340;28;46937;-66
2021/08/05 00:46:47;;;;;;;;;0.00;0.00;;;;;27.20;39.11;100337.66;5074708;28;45406;-66
2021/08/05 00:49:12;;;;;;;;;0.00;0.00;;;;;27.19;39.24;100330.44;5074691;28;45391;-66
2021/08/05 00:51:38;;;;;;;;;0.00;0.00;;;;;27.21;38.81;100336.69;5074907;28;45307;-66
2021/08/05 00:54:05;;;;;;;;;0.00;0.00;;;;;27.20;39.36;100334.03;5074545;28;45420;-66
2021/08/05 00:56:31;;;;;;;;;0.00;0.00;;;;;27.20;38.59;100334.03;5074289;28;45662;-66
2021/08/05 00:58:56;;;;;;;;;0.00;0.00;;;;;27.19;39.35;100327.72;5074604;28;45555;-66
2021/08/05 01:01:26;;;;;;;;;0.00;0.00;;;;;27.18;39.30;100320.47;5074518;28;45450;-66
2021/08/05 01:03:55;;;;;;;;;0.00;0.00;;;;;27.17;39.44;100318.75;5074241;28;45434;-66
2021/08/05 01:06:35;;;;;;;;;0.00;0.00;;;;;27.18;39.19;100323.22;5074229;28;45466;-66
2021/08/05 01:09:43;;;;;;;;;0.00;0.00;;;;;27.17;38.74;100326.03;5074503;28;45463;-66
2021/08/05 01:12:33;;;;;;;;;0.00;0.00;;;;;27.15;38.84;100309.75;4991628;28;45871;-66
2021/08/05 01:15:16;;;;;;;;;0.00;0.00;;;;;27.17;39.31;100315.09;4991323;28;46430;-66
2021/08/05 01:17:47;;;;;;;;;0.00;0.00;;;;;27.16;39.48;100316.09;4991534;28;45448;-66
2021/08/05 01:20:22;;;;;;;;;0.00;0.00;;;;;27.18;38.95;100317.75;4991620;28;45415;-66
2021/08/05 01:22:59;;;;;;;;;0.00;0.00;;;;;27.16;39.34;100314.25;4991921;28;45636;-66
2021/08/05 01:25:52;;;;;;;;;0.00;0.00;;;;;27.15;38.84;100312.50;4991186;28;45620;-66
2021/08/05 01:28:17;;;;;;;;;0.00;0.00;;;;;27.14;39.38;100317.06;4991060;28;45340;-66
2021/08/05 01:30:45;;;;;;;;;0.00;0.00;;;;;27.14;39.05;100319.78;4991538;28;45808;-67
2021/08/05 01:33:12;;;;;;;;;0.00;0.00;;;;;27.12;38.77;100312.69;4991393;28;45595;-66
2021/08/05 01:35:41;;;;;;;;;0.00;0.00;;;;;27.13;38.76;100314.44;4991329;28;46050;-67
2021/08/05 01:38:10;;;;;;;;;0.00;0.00;;;;;27.12;38.80;100309.94;4993254;28;45449;-67
2021/08/05 01:40:36;;;;;;;;;0.00;0.00;;;;;27.12;38.70;100304.47;4994240;28;45441;-66
2021/08/05 01:43:02;;;;;;;;;0.00;0.00;;;;;27.09;39.41;100297.38;4994848;28;45558;-68
2021/08/05 01:45:29;;;;;;;;;0.00;0.00;;;;;27.11;38.99;100305.47;4977925;28;47972;-66
2021/08/05 01:47:57;;;;;;;;;0.00;0.00;;;;;27.09;38.88;100300.09;5004221;28;45489;-66
2021/08/05 01:50:22;;;;;;;;;0.00;0.00;;;;;27.09;39.21;100297.38;5055486;28;45465;-67
2021/08/05 01:52:48;;;;;;;;;0.00;0.00;;;;;27.10;39.55;100295.50;5055526;28;45469;-66
2021/08/05 01:55:14;;;;;;;;;0.00;0.00;;;;;27.08;39.10;100292.88;5056688;28;45456;-67
2021/08/05 01:57:39;;;;;;;;;0.00;0.00;;;;;27.08;38.89;100289.28;5055400;28;45422;-67
2021/08/05 02:00:09;;;;;;;;;0.00;0.00;;;;;27.07;39.36;100293.84;5056914;28;45348;-67
2021/08/05 02:02:36;;;;;;;;;0.00;0.00;;;;;27.07;39.10;100284.81;5057063;28;45512;-66
2021/08/05 02:05:08;;;;;;;;;0.00;0.00;;;;;27.07;39.22;100290.25;5056677;28;45428;-66
2021/08/05 02:07:52;;;;;;;;;0.00;0.00;;;;;27.06;39.26;100280.31;5056736;28;45451;-67
2021/08/05 02:10:26;;;;;;;;;0.00;0.00;;;;;27.06;39.31;100274.84;5056771;28;45468;-67
2021/08/05 02:13:01;;;;;;;;;0.00;0.00;;;;;27.06;39.49;100280.31;5056624;28;45441;-66
2021/08/05 02:15:28;;;;;;;;;0.00;0.00;;;;;27.05;39.03;100275.81;5056502;28;46398;-66
2021/08/05 02:17:55;;;;;;;;;0.00;0.00;;;;;27.05;38.90;100276.69;5055785;28;45579;-66
2021/08/05 02:20:22;;;;;;;;;0.00;0.00;;;;;27.05;39.50;100282.16;5056627;28;45664;-66
2021/08/05 02:22:48;;;;;;;;;0.00;0.00;;;;;27.04;39.62;100279.50;5055291;28;45414;-66
2021/08/05 02:25:14;;;;;;;;;0.00;0.00;;;;;27.03;39.04;100275.03;5056357;28;45464;-66
2021/08/05 02:27:41;;;;;;;;;0.00;0.00;;;;;27.05;39.47;100275.81;5056486;28;45436;-66
2021/08/05 02:30:08;;;;;;;;;0.67;0.00;;;;;27.05;39.00;100284.03;5056420;28;45431;-66
2021/08/05 02:32:36;;;;;;;;;0.00;0.00;;;;;27.03;39.32;100275.91;5056231;28;45455;-66
2021/08/05 02:35:04;;;;;;;;;0.00;0.00;;;;;27.04;38.86;100265.88;5055816;28;46254;-66
2021/08/05 02:37:30;;;;;;;;;0.00;0.00;;;;;27.03;39.11;100264.13;5056312;28;45389;-66
2021/08/05 02:39:55;;;;;;;;;0.00;0.00;;;;;27.01;39.56;100260.63;5055078;28;45549;-66
2021/08/05 02:42:21;;;;;;;;;0.00;0.00;;;;;27.03;38.90;100261.41;5070305;28;45532;-66
2021/08/05 02:44:47;;;;;;;;;0.00;0.00;;;;;27.03;38.99;100261.41;5076528;28;46313;-66
2021/08/05 02:47:13;;;;;;;;;0.00;0.00;;;;;27.02;39.72;100259.63;5057969;28;45424;-66
2021/08/05 02:49:39;;;;;;;;;0.00;0.00;;;;;27.02;39.46;100263.22;5057758;28;45565;-66
2021/08/05 02:52:05;;;;;;;;;0.00;0.00;;;;;27.03;39.72;100261.41;5076284;28;45453;-66
2021/08/05 02:54:31;;;;;;;;;0.00;0.00;;;;;27.02;39.38;100262.34;5075982;28;45578;-66
2021/08/05 02:56:58;;;;;;;;;0.00;0.00;;;;;27.01;39.73;100255.16;5057566;28;45438;-66
2021/08/05 02:59:27;;;;;;;;;0.00;0.00;;;;;27.01;39.43;100258.75;5076095;28;45854;-67
2021/08/05 03:01:53;;;;;;;;;0.00;0.00;;;;;27.01;39.56;100250.56;5076163;28;45473;-66
2021/08/05 03:04:18;;;;;;;;;0.00;0.00;;;;;27.00;39.20;100256.13;5075025;28;45804;-66
2021/08/05 03:06:46;;;;;;;;;0.00;0.00;;;;;27.00;39.52;100248.78;5075874;28;45484;-66
2021/08/05 03:09:15;;;;;;;;;0.00;0.00;;;;;27.01;38.99;100249.69;5076019;28;45362;-66
2021/08/05 03:11:40;;;;;;;;;0.00;0.00;;;;;27.00;39.22;100250.66;5076186;28;45399;-67
2021/08/05 03:14:06;;;;;;;;;0.00;0.00;;;;;26.98;39.42;100250.75;5075676;28;45389;-67
2021/08/05 03:16:31;;;;;;;;;0.00;0.00;;;;;26.99;39.33;100235.28;5075765;28;45413;-67
2021/08/05 03:18:56;;;;;;;;;0.00;0.00;;;;;26.97;39.48;100242.69;5075770;28;45540;-66
2021/08/05 03:21:23;;;;;;;;;0.00;0.00;;;;;26.99;39.58;100240.72;5075940;28;45449;-66
2021/08/05 03:23:48;;;;;;;;;0.00;0.00;;;;;26.98;39.41;100244.41;5075571;28;45550;-66
2021/08/05 03:26:14;;;;;;;;;0.00;0.00;;;;;26.97;39.15;100248.13;5075397;28;44884;-66
2021/08/05 03:28:39;;;;;;;;;0.00;0.00;;;;;26.96;39.23;100236.31;5075515;28;45731;-66
2021/08/05 03:31:05;;;;;;;;;0.00;0.00;;;;;26.97;39.65;100234.50;5075723;28;45462;-66
2021/08/05 03:33:31;;;;;;;;;0.00;0.00;;;;;26.95;39.34;100220.94;5075537;28;45679;-66
2021/08/05 03:35:57;;;;;;;;;0.00;0.00;;;;;26.96;39.34;100225.41;5057347;28;45424;-66
2021/08/05 03:38:22;;;;;;;;;0.00;0.00;;;;;26.94;39.43;100225.53;5075529;28;45480;-66
2021/08/05 03:40:47;;;;;;;;;0.00;0.00;;;;;26.96;39.14;100221.81;5074293;28;45410;-66
2021/08/05 03:43:13;;;;;;;;;0.00;0.00;;;;;26.95;39.71;100223.66;5075156;28;45311;-66
2021/08/05 03:45:39;;;;;;;;;0.00;0.00;;;;;26.93;39.64;100225.63;5075439;28;45457;-66
2021/08/05 03:48:04;;;;;;;;;0.00;0.00;;;;;26.95;39.34;100234.59;5075521;28;45416;-66
2021/08/05 03:50:30;;;;;;;;;0.00;0.00;;;;;26.93;39.01;100222.88;5075455;28;45382;-66
2021/08/05 03:52:55;;;;;;;;;0.00;0.00;;;;;26.93;39.71;100221.03;5056774;28;47179;-66
2021/08/05 03:55:20;;;;;;;;;0.00;0.00;;;;;26.94;39.64;100221.91;5075153;28;45444;-66
2021/08/05 03:57:46;;;;;;;;;0.00;0.00;;;;;26.94;39.43;100222.78;5075428;28;45334;-66
2021/08/05 04:00:15;;;;;;;;;0.00;0.00;;;;;26.93;39.08;100215.56;5074728;28;45414;-66
2021/08/05 04:02:41;;;;;;;;;0.00;0.00;;;;;26.93;39.60;100209.25;5074939;27;45498;-66
2021/08/05 04:05:07;;;;;;;;;0.00;0.00;;;;;26.94;39.57;100206.41;5075030;28;45389;-66
2021/08/05 04:07:32;;;;;;;;;0.00;0.00;;;;;26.90;39.37;100204.81;5075231;28;45406;-66
2021/08/05 04:09:58;;;;;;;;;0.00;0.00;;;;;26.93;39.38;100221.03;5075204;28;45394;-67
2021/08/05 04:12:24;;;;;;;;;0.00;0.00;;;;;26.92;39.36;100213.81;5074178;28;45600;-67
2021/08/05 04:14:49;;;;;;;;;0.00;0.00;;;;;26.93;39.59;100212.84;5074958;28;45749;-67
2021/08/05 04:17:14;;;;;;;;;0.00;0.00;;;;;26.92;39.51;100213.81;5075166;28;45478;-67
2021/08/05 04:19:40;;;;;;;;;0.00;0.00;;;;;26.91;39.71;100211.19;5075097;28;45420;-67
2021/08/05 04:22:05;;;;;;;;;0.00;0.00;;;;;26.92;39.13;100215.66;5056625;28;48366;-66
2021/08/05 04:24:30;;;;;;;;;0.00;0.00;;;;;26.93;39.66;100220.16;5074832;28;45466;-66
2021/08/05 04:26:56;;;;;;;;;0.00;0.00;;;;;26.91;39.57;100214.78;5075033;28;45527;-66
2021/08/05 04:29:22;;;;;;;;;0.00;0.00;;;;;26.91;39.70;100208.47;5074868;28;45428;-66
2021/08/05 04:31:48;;;;;;;;;0.00;0.00;;;;;26.89;39.55;100219.47;5074846;28;45526;-66
2021/08/05 04:34:14;;;;;;;;;0.00;0.00;;;;;26.87;39.82;100215.94;5074624;28;44846;-67
2021/08/05 04:36:39;;;;;;;;;0.00;0.00;;;;;26.86;39.83;100222.38;5075249;28;45524;-67
2021/08/05 04:39:05;;;;;;;;;0.00;0.00;;;;;26.86;39.91;100219.63;5075108;28;45471;-66
2021/08/05 04:41:30;;;;;;;;;0.00;0.00;;;;;26.86;39.26;100216.91;5073276;28;45534;-66
2021/08/05 04:43:57;;;;;;;;;0.00;0.00;;;;;26.86;39.56;100214.19;5074398;28;45393;-66
2021/08/05 04:46:22;;;;;;;;;0.00;0.00;;;;;26.85;39.40;100212.44;5074948;28;44891;-66
2021/08/05 04:48:48;;;;;;;;;0.00;0.00;;;;;26.84;39.43;100221.59;5056541;28;45631;-66
2021/08/05 04:51:13;;;;;;;;;0.00;0.00;;;;;26.85;39.18;100228.81;5074111;28;46084;-66
2021/08/05 04:53:39;;;;;;;;;0.00;0.00;;;;;26.84;39.34;100227.03;5074508;28;45461;-66
2021/08/05 04:56:05;;;;;;;;;0.00;0.00;;;;;26.84;39.76;100242.53;5075011;28;45786;-67
2021/08/05 04:58:30;;;;;;;;;0.00;0.00;;;;;26.84;39.34;100242.53;5074559;28;45640;-67
2021/08/05 05:00:55;;;;;;;;;0.00;0.00;;;;;26.84;39.89;100243.41;5056298;28;45039;-65
2021/08/05 05:03:21;;;;;;;;;0.00;0.00;;;;;26.84;39.77;100242.53;5074308;27;45389;-65
2021/08/05 05:05:46;;;;;;;;;0.00;0.00;;;;;26.84;39.92;100243.41;5074172;28;45359;-65
2021/08/05 05:08:23;;;;;;;;;0.00;0.00;;;;;26.83;40.13;100240.81;5074685;28;45500;-65
2021/08/05 05:10:52;;;;;;;;;0.00;0.00;;;;;26.83;39.73;100238.06;5074464;28;45442;-65
2021/08/05 05:13:18;;;;;;;;;0.00;0.00;;;;;26.79;39.46;100234.66;5058119;28;45370;-65
2021/08/05 05:15:44;;;;;;;;;1.00;0.00;;;;;26.79;39.91;100226.47;5077941;28;45372;-65
2021/08/05 05:18:13;;;;;;;;;0.00;0.00;;;;;26.82;39.83;100239.91;5077990;28;45475;-66
2021/08/05 05:20:39;;;;;;;;;0.00;0.00;;;;;26.80;40.00;100233.66;5077758;28;46340;-66
2021/08/05 05:23:05;;;;;;;;;0.00;0.00;;;;;26.80;39.53;100236.38;5077768;28;45438;-66
2021/08/05 05:25:31;;;;;;;;;0.00;0.00;;;;;26.79;39.92;100229.19;5077848;28;45475;-66
2021/08/05 05:27:57;;;;;;;;;0.00;0.00;;;;;26.79;39.44;100231.91;5077936;28;45408;-66
2021/08/05 05:30:24;;;;;;;;;0.00;0.00;;;;;26.78;39.68;100232.88;5077497;28;45405;-67
2021/08/05 05:32:50;;;;;;;;;0.00;0.00;;;;;26.76;40.04;100228.50;5077766;28;45408;-67
2021/08/05 05:35:18;;;;;;;;;0.00;0.00;;;;;26.77;39.96;100235.72;5077579;28;45650;-67
2021/08/05 05:37:45;;;;;;;;;0.00;0.00;;;;;26.77;39.95;100225.69;5077577;28;45503;-67
2021/08/05 05:40:11;;;;;;;;;0.00;0.00;;;;;26.77;40.00;100233.88;5077290;28;46109;-67
2021/08/05 05:42:37;;;;;;;;;0.00;0.00;;;;;26.76;39.65;100234.81;5076152;28;45692;-66
2021/08/05 05:45:04;;;;;;;;;0.00;0.00;;;;;26.77;39.60;100231.13;5077408;28;45455;-66
2021/08/05 05:47:29;;;;;;;;;0.00;0.00;;;;;26.75;40.09;100233.09;5077622;28;45354;-67
2021/08/05 05:49:55;;;;;;;;;0.00;0.00;;;;;26.77;39.99;100243.91;5076888;28;45472;-67
2021/08/05 05:52:21;;;;;;;;;0.00;0.00;;;;;26.75;39.65;100233.09;5076889;28;45587;-66
2021/08/05 05:54:47;;;;;;;;;0.00;0.00;;;;;26.76;39.62;100240.28;5077263;28;45412;-66
2021/08/05 05:57:12;;;;;;;;;0.00;0.00;;;;;26.76;40.09;100233.94;5077304;28;45469;-66
2021/08/05 05:59:39;;;;;;;;;0.33;0.00;;;;;26.76;39.73;100240.28;5076813;28;45683;-67
2021/08/05 06:02:05;;;;;;;;;0.00;0.00;;;;;26.76;39.55;100239.41;5076990;27;45437;-67
2021/08/05 06:04:30;;;;;;;;;1.00;1.00;;;;;26.77;39.59;100243.91;5077105;28;45476;-67
2021/08/05 06:06:56;;;;;;;;;0.00;0.00;;;;;26.77;40.03;100249.38;5077187;28;45416;-67
2021/08/05 06:09:21;;;;;;;;;0.00;0.00;;;;;26.77;39.89;100250.25;5076994;28;45431;-66
2021/08/05 06:11:46;;;;;;;;;0.00;0.00;;;;;26.76;40.11;100251.19;5077082;28;45414;-65
2021/08/05 06:14:13;;;;;;;;;0.00;0.00;;;;;26.76;40.06;100256.66;5058204;28;45339;-65
2021/08/05 06:16:38;;;;;;;;;0.00;0.00;;;;;26.75;40.10;100249.44;5059054;28;45680;-66
2021/08/05 06:19:04;;;;;;;;;0.00;0.00;;;;;26.77;40.09;100252.09;5076463;28;45406;-66
2021/08/05 06:21:30;;;;;;;;;0.00;0.00;;;;;26.76;40.21;100258.50;5076937;28;45497;-66
2021/08/05 06:23:56;;;;;;;;;0.00;0.00;;;;;26.77;40.01;100260.28;5076299;28;45480;-66
2021/08/05 06:26:25;;;;;;;;;0.00;0.00;;;;;26.77;40.08;100252.97;5076619;28;45430;-66
2021/08/05 06:28:51;;;;;;;;;0.00;0.00;;;;;26.77;39.69;100258.41;5076625;28;45498;-67
2021/08/05 06:31:18;;;;;;;;;0.00;0.00;;;;;26.76;39.97;100245.72;5076479;28;45445;-66
2021/08/05 06:33:44;;;;;;;;;1.00;0.00;;;;;26.76;39.61;100248.47;5058781;28;45452;-66
2021/08/05 06:36:10;;;;;;;;;0.00;0.00;;;;;26.76;39.62;100251.19;5076758;28;45768;-66
2021/08/05 06:38:36;;;;;;;;;0.00;0.00;;;;;26.76;40.14;100245.72;5057932;28;45410;-67
2021/08/05 06:41:01;;;;;;;;;0.00;0.00;;;;;26.77;39.97;100247.50;5075737;28;45434;-66
2021/08/05 06:43:27;;;;;;;;;0.00;0.00;;;;;26.78;40.09;100249.25;5075652;28;45493;-66
2021/08/05 06:45:52;;;;;;;;;0.00;0.00;;;;;26.77;39.73;100244.78;5076600;28;45464;-66
2021/08/05 06:48:18;;;;;;;;;0.67;0.67;;;;;26.78;39.82;100249.25;5057591;28;45785;-66
2021/08/05 06:50:43;;;;;;;;;0.00;0.00;;;;;26.79;39.64;100248.28;5076399;28;45476;-66
2021/08/05 06:53:09;;;;;;;;;0.00;0.00;;;;;26.80;39.54;100243.69;5076313;28;45499;-66
2021/08/05 06:55:35;;;;;;;;;0.00;0.00;;;;;26.81;39.90;100250.94;5076541;28;45814;-66
2021/08/05 06:58:00;;;;;;;;;0.00;0.00;;;;;26.80;40.16;100251.88;5057481;28;47525;-66
2021/08/05 07:00:25;;;;;;;;;0.00;0.00;;;;;26.80;39.56;100243.69;5075785;28;45426;-66
2021/08/05 07:02:51;;;;;;;;;0.00;0.00;;;;;26.83;39.42;100258.03;5076384;27;45503;-66
2021/08/05 07:05:17;;;;;;;;;0.00;0.00;;;;;26.84;39.74;100259.78;5076154;28;45466;-66
2021/08/05 07:07:43;;;;;;;;;4.00;3.00;;;;;26.80;40.11;100255.50;5075449;28;45414;-66
2021/08/05 07:10:15;;;;;;;;;5.00;5.00;;;;;26.63;39.92;100250.19;5075525;28;45693;-67
2021/08/05 07:12:48;;;;;;;;;8.00;6.00;;;;;26.40;40.52;100251.53;5075843;28;45447;-68
2021/08/05 07:15:19;;;;;;;;;3.67;3.67;;;;;26.22;40.29;100256.22;5075930;28;45469;-68
2021/08/05 07:17:45;;;;;;;;;6.33;6.33;;;;;26.06;40.93;100248.97;5057698;28;47427;-67
2021/08/05 07:20:12;;;;;;;;;3.67;3.67;;;;;26.00;41.05;100252.06;5075438;28;45693;-67
2021/08/05 07:22:38;;;;;;;;;6.33;5.00;;;;;25.94;40.96;100252.41;5075809;28;45465;-67
2021/08/05 07:25:05;;;;;;;;;4.67;4.67;;;;;25.93;41.28;100261.53;5075641;28;45686;-67
2021/08/05 07:27:31;;;;;;;;;3.67;3.67;;;;;25.91;41.54;100258.03;5056916;28;46455;-67
2021/08/05 07:29:56;;;;;;;;;4.33;4.33;;;;;25.90;41.11;100256.28;5072286;27;45393;-67
2021/08/05 07:32:28;;;;;;;;;6.00;6.00;;;;;25.87;41.34;100261.84;5074261;28;45478;-67
2021/08/05 07:35:04;;;;;;;;;6.00;6.00;;;;;25.77;41.51;100261.50;5071409;28;45663;-67
2021/08/05 07:37:30;;;;;;;;;4.00;3.00;;;;;25.68;42.07;100262.91;5066891;28;46494;-67
2021/08/05 07:39:56;;;;;;;;;4.00;4.00;;;;;25.65;41.70;100265.81;5075040;28;45460;-67
2021/08/05 07:42:28;;;;;;;;;7.67;6.67;;;;;25.66;41.53;100259.38;5073618;27;45384;-67
2021/08/05 07:44:54;;;;;;;;;7.33;4.00;;;;;25.67;41.71;100254.81;5074977;28;45470;-66
2021/08/05 07:47:21;;;;;;;;;7.00;7.00;;;;;25.65;41.84;100257.66;5074385;28;45416;-66
2021/08/05 07:49:46;;;;;;;;;2.00;2.00;;;;;25.62;41.97;100251.50;5072370;28;45640;-66
2021/08/05 07:52:12;;;;;;;;;4.67;4.00;;;;;25.62;42.03;100255.09;5055269;28;45469;-66
2021/08/05 07:54:38;;;;;;;;;2.67;2.67;;;;;25.64;42.12;100255.00;5056084;28;45334;-67
2021/08/05 07:57:03;;;;;;;;;5.00;4.00;;;;;25.67;42.29;100255.72;5074345;28;45651;-66
2021/08/05 07:59:30;;;;;;;;;7.00;7.00;;;;;25.68;42.18;100252.00;5092390;27;45993;-66
2021/08/05 08:01:56;;;;;;;;;5.00;4.67;;;;;25.72;42.05;100258.16;5095050;27;45406;-66
2021/08/05 08:04:22;;;;;;;;;3.33;3.33;;;;;25.70;42.16;100258.25;5094840;27;45539;-66
2021/08/05 08:06:47;;;;;;;;;6.33;5.67;;;;;25.71;42.32;100243.69;5071827;27;45508;-67
2021/08/05 08:09:13;;;;;;;;;8.00;7.00;;;;;25.68;42.29;100246.56;5073765;28;47100;-67
2021/08/05 08:11:39;;;;;;;;;16.33;16.33;;;;;25.65;42.76;100237.69;5073426;28;45449;-67
2021/08/05 08:14:05;;;;;;;;;11.33;11.33;;;;;25.60;42.77;100234.34;5049551;28;46781;-66
2021/08/05 08:16:30;;;;;;;;;8.00;8.00;;;;;25.53;42.69;100231.97;5080066;27;46217;-66
2021/08/05 08:18:56;;;;;;;;;7.33;7.33;;;;;25.49;42.84;100229.50;5076902;27;45551;-66
2021/08/05 08:21:22;;;;;;;;;8.00;6.67;;;;;25.47;42.97;100220.53;5073697;28;45454;-67
2021/08/05 08:23:49;;;;;;;;;6.00;6.00;;;;;25.47;43.14;100225.97;5056073;28;45657;-67
2021/08/05 08:26:15;;;;;;;;;6.67;6.67;;;;;25.47;43.15;100223.25;5061504;28;45398;-67
2021/08/05 08:28:40;;;;;;;;;7.33;7.00;;;;;25.47;42.73;100213.28;5069415;28;45658;-66
2021/08/05 08:31:06;;;;;;;;;3.33;3.33;;;;;25.51;42.74;100219.41;5057032;28;45419;-67
2021/08/05 08:33:32;;;;;;;;;6.33;6.33;;;;;25.57;42.38;100218.19;5068999;27;45710;-66
2021/08/05 08:35:58;;;;;;;;;7.00;7.00;;;;;25.58;42.49;100212.66;5065007;28;45472;-66
2021/08/05 08:38:24;;;;;;;;;4.33;4.33;;;;;25.63;42.61;100217.81;5074486;28;45479;-67
2021/08/05 08:40:51;;;;;;;;;3.67;3.67;;;;;25.65;42.30;100222.25;5074389;28;45644;-67
2021/08/05 08:43:22;;;;;;;;;4.33;4.33;;;;;25.71;42.23;100218.25;5073234;28;45672;-67
2021/08/05 08:45:51;;;;;;;;;4.67;4.67;;;;;25.75;42.37;100209.84;5073143;28;45847;-66
2021/08/05 08:48:17;;;;;;;;;4.33;3.67;;;;;25.78;42.36;100213.38;5077491;27;45480;-66
2021/08/05 08:50:44;;;;;;;;;5.00;5.00;;;;;25.81;42.23;100215.91;5059306;28;45441;-66
2021/08/05 08:53:11;;;;;;;;;7.67;5.67;;;;;25.86;42.19;100211.06;5077429;28;45477;-67
2021/08/05 08:55:41;;;;;;;;;5.00;5.00;;;;;25.87;42.17;100212.81;5076398;28;45797;-67
2021/08/05 08:58:07;;;;;;;;;7.33;6.67;;;;;25.87;42.13;100210.09;5051189;28;45498;-68
2021/08/05 09:00:36;;;;;;;;;6.00;6.00;;;;;25.90;42.30;100216.28;5077100;28;45303;-67
2021/08/05 09:03:04;;;;;;;;;2.67;2.67;;;;;25.92;42.15;100219.78;5075791;28;45380;-67
2021/08/05 09:05:30;;;;;;;;;5.67;5.67;;;;;25.93;42.07;100216.13;5078189;27;45534;-67
2021/08/05 09:07:58;;;;;;;;;8.67;6.00;;;;;25.94;42.16;100214.25;5077472;28;45479;-66
2021/08/05 09:10:24;;;;;;;;;7.00;6.00;;;;;25.93;41.92;100212.50;5075852;28;45512;-70
2021/08/05 09:13:00;;;;;;;;;7.33;6.33;;;;;25.95;42.36;100210.56;5077574;28;45537;-66
2021/08/05 09:15:35;;;;;;;;;5.00;5.00;;;;;25.96;42.32;100211.47;5071894;28;46860;-67
2021/08/05 09:18:01;;;;;;;;;9.00;9.00;;;;;25.94;42.15;100220.59;5077588;28;45678;-68
2021/08/05 09:20:26;;;;;;;;;6.33;6.00;;;;;25.97;41.98;100213.19;5077643;28;45463;-66
2021/08/05 09:22:52;;;;;;;;;5.33;5.33;;;;;26.00;41.66;100216.63;5075798;27;45450;-67
2021/08/05 09:25:17;;;;;;;;;5.33;5.33;;;;;26.06;41.97;100218.13;5064633;28;45533;-67
2021/08/05 09:27:44;;;;;;;;;6.33;6.33;;;;;26.11;41.71;100216.84;5069306;28;45457;-67
2021/08/05 09:30:09;;;;;;;;;6.67;4.67;;;;;26.17;41.50;100212.03;5068265;28;45476;-67
2021/08/05 09:32:35;;;;;;;;;3.33;3.00;;;;;26.20;41.14;100206.38;5073832;28;45573;-67
2021/08/05 09:35:06;;;;;;;;;5.00;5.00;;;;;26.25;41.26;100207.00;5074550;28;45773;-67
2021/08/05 09:37:39;;;;;;;;;5.00;5.00;;;;;26.29;41.01;100208.56;5072159;28;45428;-66
2021/08/05 09:40:13;;;;;;;;;2.67;2.67;;;;;26.33;41.23;100215.59;5072010;27;45902;-67
2021/08/05 09:42:39;;;;;;;;;4.67;4.67;;;;;26.36;41.07;100196.34;5071707;28;45666;-67
2021/08/05 09:45:07;;;;;;;;;4.33;4.33;;;;;26.35;40.79;100197.28;5056169;28;46302;-67
2021/08/05 09:47:42;;;;;;;;;5.00;5.00;;;;;26.37;40.86;100203.53;5055252;28;45603;-68
2021/08/05 09:50:08;;;;;;;;;3.67;3.00;;;;;26.38;40.99;100197.13;5069173;28;45643;-67
2021/08/05 09:52:35;;;;;;;;;6.00;5.00;;;;;26.42;40.67;100187.78;5072996;28;45610;-68
2021/08/05 09:55:06;;;;;;;;;5.00;4.00;;;;;26.43;40.35;100188.66;5073840;28;45476;-68
2021/08/05 09:57:37;;;;;;;;;6.00;6.00;;;;;26.44;40.61;100179.47;5062412;27;45578;-69
2021/08/05 10:00:07;;;;;;;;;4.00;4.00;;;;;26.43;40.94;100175.88;5076972;28;45365;-68
2021/08/05 10:02:40;;;;;;;;;3.33;3.33;;;;;26.43;41.09;100183.19;5073631;27;45488;-68
2021/08/05 10:05:16;;;;;;;;;4.33;4.33;;;;;26.43;40.47;100177.75;5063523;28;46257;-68
2021/08/05 10:07:48;;;;;;;;;4.33;4.33;;;;;26.44;40.41;100174.94;5074170;28;45567;-68
2021/08/05 10:10:16;;;;;;;;;5.67;5.67;;;;;26.47;40.95;100173.84;5076100;28;45425;-67
2021/08/05 10:12:53;;;;;;;;;4.00;4.00;;;;;26.52;40.66;100180.78;5076885;28;45343;-67
2021/08/05 10:15:20;;;;;;;;;4.00;4.00;;;;;26.55;40.55;100183.31;5059385;28;47067;-67
2021/08/05 10:17:50;;;;;;;;;3.33;3.33;;;;;26.58;40.44;100170.50;5074523;28;45531;-67
2021/08/05 10:20:15;;;;;;;;;4.67;4.67;;;;;26.58;40.06;100171.38;5075614;28;45461;-67
2021/08/05 10:22:42;;;;;;;;;1.00;1.00;;;;;26.61;40.54;100167.59;5075250;28;45431;-68
2021/08/05 10:25:11;;;;;;;;;2.00;2.00;;;;;26.62;39.94;100161.16;5073906;28;45633;-68
2021/08/05 10:27:37;;;;;;;;;1.00;1.00;;;;;26.64;40.00;100154.66;5075975;28;46522;-68
2021/08/05 10:30:09;;;;;;;;;3.33;3.33;;;;;26.64;40.36;100154.66;5076125;28;45328;-69
2021/08/05 10:32:36;;;;;;;;;2.00;2.00;;;;;26.64;40.07;100148.28;5076810;27;45788;-68
2021/08/05 10:35:02;;;;;;;;;5.33;5.33;;;;;26.66;40.43;100151.81;5075681;28;46059;-68
2021/08/05 10:37:28;;;;;;;;;5.67;5.00;;;;;26.67;39.67;100148.13;5066818;28;45393;-68
2021/08/05 10:39:55;;;;;;;;;3.00;3.00;;;;;26.68;40.28;100147.13;5058087;28;45845;-68
2021/08/05 10:42:21;;;;;;;;;4.00;4.00;;;;;26.69;39.29;100144.31;5080032;27;45478;-68
2021/08/05 10:44:49;;;;;;;;;5.67;4.67;;;;;26.72;39.96;100143.22;5057520;28;47224;-68
2021/08/05 10:47:24;;;;;;;;;1.67;1.67;;;;;26.76;39.54;100136.59;5059271;28;44939;-68
2021/08/05 10:49:56;;;;;;;;;3.00;3.00;;;;;26.80;39.77;100135.44;5041479;28;45385;-67
2021/08/05 10:52:37;;;;;;;;;4.00;4.00;;;;;26.85;39.77;100136.03;5056301;28;45416;-66
2021/08/05 10:55:28;;;;;;;;;5.67;5.67;;;;;26.88;39.97;100138.56;5055254;28;45429;-69
2021/08/05 10:58:15;;;;;;;;;3.33;3.33;;;;;26.89;39.46;100132.16;5054611;28;45476;-67
2021/08/05 11:00:49;;;;;;;;;4.00;4.00;;;;;26.89;39.17;100123.97;5056145;28;45479;-67
2021/08/05 11:03:35;;;;;;;;;3.33;3.33;;;;;26.92;39.12;100126.50;5041809;28;45374;-67
2021/08/05 11:06:02;;;;;;;;;1.67;1.67;;;;;26.92;39.08;100112.88;5050867;28;45463;-67
2021/08/05 11:08:29;;;;;;;;;2.00;2.00;;;;;26.94;39.48;100120.94;5054225;28;45413;-67
2021/08/05 11:11:19;;;;;;;;;4.67;4.67;;;;;26.97;39.43;100119.88;5055428;28;45436;-67
2021/08/05 11:13:46;;;;;;;;;3.67;3.67;;;;;26.96;39.48;100104.47;5055648;28;45445;-67
2021/08/05 11:16:11;;;;;;;;;2.33;2.33;;;;;26.98;39.08;100100.66;5054161;28;45522;-68
2021/08/05 11:18:37;;;;;;;;;1.00;1.00;;;;;27.01;39.52;100099.59;5055858;28;45439;-68
2021/08/05 11:21:23;;;;;;;;;2.33;2.00;;;;;27.05;39.33;100092.97;5055172;28;45901;-68
2021/08/05 11:23:49;;;;;;;;;4.67;4.67;;;;;27.06;39.26;100100.16;5050561;28;45389;-67
2021/08/05 11:26:14;;;;;;;;;3.00;3.00;;;;;27.05;39.66;100091.09;5051143;28;45398;-68